Terminal Aerodrome Forecast
Issued by NWS Denver/Boulder, CO

Home | Current Version | Previous Version | Text Only | Print | Product List | Glossary On
Versions: 1 2 3 4 5 6 7 8 9 10 11 12 13 14 15 16 17 18 19 20 21 22 23 24 25 26 27 28 29 30 31 32 33 34 35 36 37 38 39
000
FTUS45 KBOU 200254 AAD
TAFDEN
TAF AMD
KDEN 200254Z 2003/2106 22010KT P6SM SCT150 BKN220
     FM201500 VRB06KT P6SM SCT140
     FM201700 10010KT P6SM FEW080 SCT140
     FM202200 14010KT P6SM VCTS SCT080CB BKN120
      TEMPO 2022/2101 VRB20G35KT
     FM210300 21012KT P6SM FEW080 SCT220=

USA.gov is the U.S. government's official web portal to all federal, state and local government web resources and services.